Terminal Aerodrome Forecast
Issued by NWS Twin Cities, MN

Home | Current Version | Previous Version | Graphics & Text | Print | Product List | Glossary On
Versions: 1 2 3 4 5 6 7 8 9 10 11 12 13 14 15 16 17 18 19 20 21 22 23 24 25 26
000
FTUS43 KMPX 282056 AAA
TAFMSP
TAF AMD
KMSP 282056Z 2821/2924 13011KT 4SM HZ OVC009
     FM282300 14007KT 4SM BR OVC011
     FM290300 08004KT 4SM BR OVC006
      TEMPO 2903/2906 3SM -FZDZ
     FM290600 32008KT 6SM BR OVC008
     FM290800 32014G23KT P6SM OVC012
     FM291400 32019G26KT P6SM OVC020=

USA.gov is the U.S. government's official web portal to all federal, state and local government web resources and services.